sensor_id;sensor_type;location;lat;lon;timestamp;P1;durP1;ratioP1;P2;durP2;ratioP2
18076;SDS011;9165;45.714;11.362;2023-07-16T00:00:24;11.73;;;8.03;;
18076;SDS011;9165;45.714;11.362;2023-07-16T00:02:52;8.00;;;6.90;;
18076;SDS011;9165;45.714;11.362;2023-07-16T00:05:19;11.80;;;7.50;;
18076;SDS011;9165;45.714;11.362;2023-07-16T00:07:46;11.70;;;6.93;;
18076;SDS011;9165;45.714;11.362;2023-07-16T00:10:12;8.97;;;7.00;;
18076;SDS011;9165;45.714;11.362;2023-07-16T00:12:39;9.03;;;6.90;;
18076;SDS011;9165;45.714;11.362;2023-07-16T00:15:06;13.87;;;7.40;;
18076;SDS011;9165;45.714;11.362;2023-07-16T00:17:33;12.83;;;7.60;;
18076;SDS011;9165;45.714;11.362;2023-07-16T00:20:02;9.37;;;6.60;;
18076;SDS011;9165;45.714;11.362;2023-07-16T00:22:29;9.90;;;7.50;;
18076;SDS011;9165;45.714;11.362;2023-07-16T00:24:55;10.43;;;7.97;;
18076;SDS011;9165;45.714;11.362;2023-07-16T00:27:22;8.87;;;7.33;;
18076;SDS011;9165;45.714;11.362;2023-07-16T00:29:48;14.77;;;7.50;;
18076;SDS011;9165;45.714;11.362;2023-07-16T00:32:15;9.97;;;7.37;;
18076;SDS011;9165;45.714;11.362;2023-07-16T00:34:42;13.50;;;7.87;;
18076;SDS011;9165;45.714;11.362;2023-07-16T00:37:10;10.00;;;7.73;;
18076;SDS011;9165;45.714;11.362;2023-07-16T00:39:36;11.03;;;7.10;;
18076;SDS011;9165;45.714;11.362;2023-07-16T00:42:03;11.97;;;7.83;;
18076;SDS011;9165;45.714;11.362;2023-07-16T00:44:30;9.97;;;7.33;;
18076;SDS011;9165;45.714;11.362;2023-07-16T00:46:56;8.03;;;7.23;;
18076;SDS011;9165;45.714;11.362;2023-07-16T00:49:23;10.27;;;7.60;;
18076;SDS011;9165;45.714;11.362;2023-07-16T00:51:50;8.50;;;7.70;;
18076;SDS011;9165;45.714;11.362;2023-07-16T00:54:19;11.40;;;7.47;;
18076;SDS011;9165;45.714;11.362;2023-07-16T00:56:45;13.17;;;8.03;;
18076;SDS011;9165;45.714;11.362;2023-07-16T00:59:12;9.53;;;6.73;;
18076;SDS011;9165;45.714;11.362;2023-07-16T01:01:38;11.07;;;7.03;;
18076;SDS011;9165;45.714;11.362;2023-07-16T01:04:05;10.33;;;8.17;;
18076;SDS011;9165;45.714;11.362;2023-07-16T01:06:33;13.80;;;7.93;;
18076;SDS011;9165;45.714;11.362;2023-07-16T01:09:01;10.00;;;7.63;;
18076;SDS011;9165;45.714;11.362;2023-07-16T01:11:30;11.03;;;8.00;;
18076;SDS011;9165;45.714;11.362;2023-07-16T01:13:57;14.63;;;7.90;;
18076;SDS011;9165;45.714;11.362;2023-07-16T01:16:24;8.83;;;7.07;;
18076;SDS011;9165;45.714;11.362;2023-07-16T01:18:51;9.60;;;7.47;;
18076;SDS011;9165;45.714;11.362;2023-07-16T01:21:18;11.43;;;7.03;;
18076;SDS011;9165;45.714;11.362;2023-07-16T01:23:50;10.87;;;6.87;;
18076;SDS011;9165;45.714;11.362;2023-07-16T01:26:23;11.70;;;8.17;;
18076;SDS011;9165;45.714;11.362;2023-07-16T01:31:41;7.93;;;7.13;;
18076;SDS011;9165;45.714;11.362;2023-07-16T01:34:08;9.23;;;6.70;;
18076;SDS011;9165;45.714;11.362;2023-07-16T01:36:36;9.77;;;6.80;;
18076;SDS011;9165;45.714;11.362;2023-07-16T01:39:03;12.40;;;7.23;;
18076;SDS011;9165;45.714;11.362;2023-07-16T01:41:30;9.90;;;7.53;;
18076;SDS011;9165;45.714;11.362;2023-07-16T01:43:57;12.70;;;7.37;;
18076;SDS011;9165;45.714;11.362;2023-07-16T01:46:24;10.97;;;6.53;;
18076;SDS011;9165;45.714;11.362;2023-07-16T01:48:52;10.13;;;6.80;;
18076;SDS011;9165;45.714;11.362;2023-07-16T01:51:18;9.30;;;7.47;;
18076;SDS011;9165;45.714;11.362;2023-07-16T01:53:45;9.63;;;7.43;;
18076;SDS011;9165;45.714;11.362;2023-07-16T01:56:12;12.73;;;8.07;;
18076;SDS011;9165;45.714;11.362;2023-07-16T01:58:38;11.73;;;8.33;;
18076;SDS011;9165;45.714;11.362;2023-07-16T02:01:05;8.27;;;7.43;;
18076;SDS011;9165;45.714;11.362;2023-07-16T02:03:32;10.53;;;8.00;;
18076;SDS011;9165;45.714;11.362;2023-07-16T02:06:00;9.37;;;7.60;;
18076;SDS011;9165;45.714;11.362;2023-07-16T02:08:26;11.40;;;8.00;;
18076;SDS011;9165;45.714;11.362;2023-07-16T02:10:53;11.97;;;7.53;;
18076;SDS011;9165;45.714;11.362;2023-07-16T02:13:19;8.47;;;7.57;;
18076;SDS011;9165;45.714;11.362;2023-07-16T02:15:46;10.97;;;7.03;;
18076;SDS011;9165;45.714;11.362;2023-07-16T02:18:13;11.47;;;7.53;;
18076;SDS011;9165;45.714;11.362;2023-07-16T02:20:40;10.67;;;7.27;;
18076;SDS011;9165;45.714;11.362;2023-07-16T02:23:08;10.13;;;7.37;;
18076;SDS011;9165;45.714;11.362;2023-07-16T02:25:34;10.57;;;7.20;;
18076;SDS011;9165;45.714;11.362;2023-07-16T02:28:01;14.83;;;7.83;;
18076;SDS011;9165;45.714;11.362;2023-07-16T02:30:27;13.37;;;7.57;;
18076;SDS011;9165;45.714;11.362;2023-07-16T02:32:54;10.77;;;7.80;;
18076;SDS011;9165;45.714;11.362;2023-07-16T02:35:21;8.20;;;7.40;;
18076;SDS011;9165;45.714;11.362;2023-07-16T02:37:47;13.27;;;8.33;;
18076;SDS011;9165;45.714;11.362;2023-07-16T02:40:15;11.13;;;7.60;;
18076;SDS011;9165;45.714;11.362;2023-07-16T02:42:42;9.77;;;8.07;;
18076;SDS011;9165;45.714;11.362;2023-07-16T02:45:08;12.77;;;7.80;;
18076;SDS011;9165;45.714;11.362;2023-07-16T02:47:35;9.50;;;7.67;;
18076;SDS011;9165;45.714;11.362;2023-07-16T02:50:02;12.57;;;7.70;;
18076;SDS011;9165;45.714;11.362;2023-07-16T02:52:28;8.40;;;7.30;;
18076;SDS011;9165;45.714;11.362;2023-07-16T02:54:55;12.37;;;8.07;;
18076;SDS011;9165;45.714;11.362;2023-07-16T02:57:23;10.00;;;7.67;;
18076;SDS011;9165;45.714;11.362;2023-07-16T02:59:49;16.03;;;8.23;;
18076;SDS011;9165;45.714;11.362;2023-07-16T03:02:16;9.80;;;7.70;;
18076;SDS011;9165;45.714;11.362;2023-07-16T03:04:43;10.10;;;7.17;;
18076;SDS011;9165;45.714;11.362;2023-07-16T03:07:09;12.53;;;7.83;;
18076;SDS011;9165;45.714;11.362;2023-07-16T03:09:44;9.13;;;7.67;;
18076;SDS011;9165;45.714;11.362;2023-07-16T03:12:10;9.67;;;6.80;;
18076;SDS011;9165;45.714;11.362;2023-07-16T03:14:38;10.73;;;7.90;;
18076;SDS011;9165;45.714;11.362;2023-07-16T03:20:13;14.53;;;7.60;;
18076;SDS011;9165;45.714;11.362;2023-07-16T03:22:56;10.07;;;7.37;;
18076;SDS011;9165;45.714;11.362;2023-07-16T03:25:23;10.90;;;7.43;;
18076;SDS011;9165;45.714;11.362;2023-07-16T03:27:50;11.23;;;7.50;;
18076;SDS011;9165;45.714;11.362;2023-07-16T03:30:18;7.67;;;6.27;;
18076;SDS011;9165;45.714;11.362;2023-07-16T03:32:47;8.53;;;6.70;;
18076;SDS011;9165;45.714;11.362;2023-07-16T03:35:14;15.43;;;7.57;;
18076;SDS011;9165;45.714;11.362;2023-07-16T03:37:41;10.37;;;6.77;;
18076;SDS011;9165;45.714;11.362;2023-07-16T03:40:14;9.00;;;7.30;;
18076;SDS011;9165;45.714;11.362;2023-07-16T03:42:41;11.30;;;7.77;;
18076;SDS011;9165;45.714;11.362;2023-07-16T03:45:09;10.10;;;7.50;;
18076;SDS011;9165;45.714;11.362;2023-07-16T03:50:28;9.93;;;6.37;;
18076;SDS011;9165;45.714;11.362;2023-07-16T03:52:55;11.83;;;7.60;;
18076;SDS011;9165;45.714;11.362;2023-07-16T03:55:22;11.67;;;7.73;;
18076;SDS011;9165;45.714;11.362;2023-07-16T03:57:49;11.93;;;7.50;;
18076;SDS011;9165;45.714;11.362;2023-07-16T04:00:16;12.77;;;7.30;;
18076;SDS011;9165;45.714;11.362;2023-07-16T04:02:42;13.23;;;7.50;;
18076;SDS011;9165;45.714;11.362;2023-07-16T04:05:23;8.30;;;7.33;;
18076;SDS011;9165;45.714;11.362;2023-07-16T04:07:52;11.17;;;7.63;;
18076;SDS011;9165;45.714;11.362;2023-07-16T04:10:35;9.87;;;7.60;;
18076;SDS011;9165;45.714;11.362;2023-07-16T04:13:02;15.57;;;7.87;;
18076;SDS011;9165;45.714;11.362;2023-07-16T04:15:28;7.70;;;6.33;;
18076;SDS011;9165;45.714;11.362;2023-07-16T04:17:55;9.63;;;7.37;;
18076;SDS011;9165;45.714;11.362;2023-07-16T04:23:43;8.00;;;7.07;;
18076;SDS011;9165;45.714;11.362;2023-07-16T04:26:10;9.23;;;6.87;;
18076;SDS011;9165;45.714;11.362;2023-07-16T04:28:36;9.93;;;6.80;;
18076;SDS011;9165;45.714;11.362;2023-07-16T04:31:04;11.33;;;6.70;;
18076;SDS011;9165;45.714;11.362;2023-07-16T04:36:39;14.40;;;7.27;;
18076;SDS011;9165;45.714;11.362;2023-07-16T04:39:10;13.33;;;7.27;;
18076;SDS011;9165;45.714;11.362;2023-07-16T04:41:37;7.87;;;7.07;;
18076;SDS011;9165;45.714;11.362;2023-07-16T04:44:04;7.63;;;6.77;;
18076;SDS011;9165;45.714;11.362;2023-07-16T04:46:34;13.57;;;7.60;;
18076;SDS011;9165;45.714;11.362;2023-07-16T04:49:01;8.60;;;6.33;;
18076;SDS011;9165;45.714;11.362;2023-07-16T04:54:47;11.83;;;6.47;;
18076;SDS011;9165;45.714;11.362;2023-07-16T04:57:13;8.80;;;6.73;;
18076;SDS011;9165;45.714;11.362;2023-07-16T05:00:02;8.40;;;6.53;;
18076;SDS011;9165;45.714;11.362;2023-07-16T05:02:33;7.87;;;6.17;;
18076;SDS011;9165;45.714;11.362;2023-07-16T05:05:00;8.20;;;6.53;;
18076;SDS011;9165;45.714;11.362;2023-07-16T05:07:26;10.17;;;6.87;;
18076;SDS011;9165;45.714;11.362;2023-07-16T05:09:54;10.13;;;6.73;;
18076;SDS011;9165;45.714;11.362;2023-07-16T05:12:21;12.53;;;7.00;;
18076;SDS011;9165;45.714;11.362;2023-07-16T05:14:48;9.97;;;6.37;;
18076;SDS011;9165;45.714;11.362;2023-07-16T05:17:15;11.03;;;6.60;;
18076;SDS011;9165;45.714;11.362;2023-07-16T05:19:41;8.30;;;6.33;;
18076;SDS011;9165;45.714;11.362;2023-07-16T05:22:08;11.87;;;6.43;;
18076;SDS011;9165;45.714;11.362;2023-07-16T05:24:35;12.53;;;6.80;;
18076;SDS011;9165;45.714;11.362;2023-07-16T05:27:03;7.17;;;6.20;;
18076;SDS011;9165;45.714;11.362;2023-07-16T05:29:30;12.27;;;6.60;;
18076;SDS011;9165;45.714;11.362;2023-07-16T05:31:56;11.20;;;6.27;;
18076;SDS011;9165;45.714;11.362;2023-07-16T05:34:23;10.60;;;6.07;;
18076;SDS011;9165;45.714;11.362;2023-07-16T05:36:52;9.47;;;6.13;;
18076;SDS011;9165;45.714;11.362;2023-07-16T05:39:19;6.70;;;6.03;;
18076;SDS011;9165;45.714;11.362;2023-07-16T05:41:45;10.80;;;6.37;;
18076;SDS011;9165;45.714;11.362;2023-07-16T05:44:13;11.23;;;6.57;;
18076;SDS011;9165;45.714;11.362;2023-07-16T05:46:40;11.10;;;6.57;;
18076;SDS011;9165;45.714;11.362;2023-07-16T05:49:17;11.77;;;6.37;;
18076;SDS011;9165;45.714;11.362;2023-07-16T05:52:09;12.73;;;6.87;;
18076;SDS011;9165;45.714;11.362;2023-07-16T05:57:43;10.00;;;6.90;;
18076;SDS011;9165;45.714;11.362;2023-07-16T06:00:12;7.87;;;6.83;;
18076;SDS011;9165;45.714;11.362;2023-07-16T06:02:39;10.00;;;7.30;;
18076;SDS011;9165;45.714;11.362;2023-07-16T06:05:06;9.87;;;6.53;;
18076;SDS011;9165;45.714;11.362;2023-07-16T06:07:33;10.27;;;7.40;;
18076;SDS011;9165;45.714;11.362;2023-07-16T06:09:59;13.37;;;7.00;;
18076;SDS011;9165;45.714;11.362;2023-07-16T06:12:26;7.17;;;6.27;;
18076;SDS011;9165;45.714;11.362;2023-07-16T06:18:00;12.47;;;6.90;;
18076;SDS011;9165;45.714;11.362;2023-07-16T06:20:31;18.77;;;7.70;;
18076;SDS011;9165;45.714;11.362;2023-07-16T06:22:58;13.93;;;6.47;;
18076;SDS011;9165;45.714;11.362;2023-07-16T06:25:25;10.60;;;7.00;;
18076;SDS011;9165;45.714;11.362;2023-07-16T06:28:00;9.97;;;7.40;;
18076;SDS011;9165;45.714;11.362;2023-07-16T06:30:39;10.37;;;7.07;;
18076;SDS011;9165;45.714;11.362;2023-07-16T06:36:15;10.60;;;7.33;;
18076;SDS011;9165;45.714;11.362;2023-07-16T06:38:42;13.63;;;7.60;;
18076;SDS011;9165;45.714;11.362;2023-07-16T06:41:25;14.90;;;6.87;;
18076;SDS011;9165;45.714;11.362;2023-07-16T06:43:52;11.90;;;7.87;;
18076;SDS011;9165;45.714;11.362;2023-07-16T06:46:21;10.57;;;7.63;;
18076;SDS011;9165;45.714;11.362;2023-07-16T06:48:47;11.00;;;7.80;;
18076;SDS011;9165;45.714;11.362;2023-07-16T06:54:32;9.77;;;7.83;;
18076;SDS011;9165;45.714;11.362;2023-07-16T06:57:08;11.93;;;7.07;;
18076;SDS011;9165;45.714;11.362;2023-07-16T06:59:35;10.83;;;7.10;;
18076;SDS011;9165;45.714;11.362;2023-07-16T07:02:02;9.73;;;7.40;;
18076;SDS011;9165;45.714;11.362;2023-07-16T07:04:29;11.63;;;7.67;;
18076;SDS011;9165;45.714;11.362;2023-07-16T07:07:03;12.30;;;7.17;;
18076;SDS011;9165;45.714;11.362;2023-07-16T07:09:32;12.53;;;8.50;;
18076;SDS011;9165;45.714;11.362;2023-07-16T07:11:59;11.03;;;7.20;;
18076;SDS011;9165;45.714;11.362;2023-07-16T07:14:25;11.77;;;8.37;;
18076;SDS011;9165;45.714;11.362;2023-07-16T07:16:52;12.53;;;9.60;;
18076;SDS011;9165;45.714;11.362;2023-07-16T07:19:19;15.33;;;8.17;;
18076;SDS011;9165;45.714;11.362;2023-07-16T07:21:46;12.63;;;10.13;;
18076;SDS011;9165;45.714;11.362;2023-07-16T07:24:12;11.27;;;10.03;;
18076;SDS011;9165;45.714;11.362;2023-07-16T07:26:40;12.07;;;9.43;;
18076;SDS011;9165;45.714;11.362;2023-07-16T07:32:22;16.97;;;9.00;;
18076;SDS011;9165;45.714;11.362;2023-07-16T07:34:51;10.60;;;8.20;;
18076;SDS011;9165;45.714;11.362;2023-07-16T07:37:17;13.73;;;8.43;;
18076;SDS011;9165;45.714;11.362;2023-07-16T07:39:55;13.93;;;8.03;;
18076;SDS011;9165;45.714;11.362;2023-07-16T07:42:48;8.37;;;7.47;;
18076;SDS011;9165;45.714;11.362;2023-07-16T07:45:14;10.97;;;7.20;;
18076;SDS011;9165;45.714;11.362;2023-07-16T07:47:41;14.07;;;8.37;;
18076;SDS011;9165;45.714;11.362;2023-07-16T07:50:08;9.63;;;7.47;;
18076;SDS011;9165;45.714;11.362;2023-07-16T07:52:34;10.77;;;6.97;;
18076;SDS011;9165;45.714;11.362;2023-07-16T07:55:01;10.97;;;7.57;;
18076;SDS011;9165;45.714;11.362;2023-07-16T07:57:28;11.37;;;7.67;;
18076;SDS011;9165;45.714;11.362;2023-07-16T08:03:03;13.20;;;7.43;;
18076;SDS011;9165;45.714;11.362;2023-07-16T08:05:30;13.37;;;8.30;;
18076;SDS011;9165;45.714;11.362;2023-07-16T08:08:08;12.13;;;9.20;;
18076;SDS011;9165;45.714;11.362;2023-07-16T08:13:03;14.10;;;7.77;;
18076;SDS011;9165;45.714;11.362;2023-07-16T08:17:15;14.90;;;8.20;;
18076;SDS011;9165;45.714;11.362;2023-07-16T08:19:43;11.70;;;8.80;;
18076;SDS011;9165;45.714;11.362;2023-07-16T08:22:10;11.00;;;7.50;;
18076;SDS011;9165;45.714;11.362;2023-07-16T08:24:45;15.10;;;8.13;;
18076;SDS011;9165;45.714;11.362;2023-07-16T08:27:47;9.87;;;7.77;;
18076;SDS011;9165;45.714;11.362;2023-07-16T08:30:14;13.33;;;7.20;;
18076;SDS011;9165;45.714;11.362;2023-07-16T08:32:43;9.43;;;7.23;;
18076;SDS011;9165;45.714;11.362;2023-07-16T08:35:15;10.93;;;7.60;;
18076;SDS011;9165;45.714;11.362;2023-07-16T08:38:20;9.33;;;6.67;;
18076;SDS011;9165;45.714;11.362;2023-07-16T08:40:57;9.30;;;6.93;;
18076;SDS011;9165;45.714;11.362;2023-07-16T08:43:34;14.07;;;7.83;;
18076;SDS011;9165;45.714;11.362;2023-07-16T08:46:04;14.53;;;7.87;;
18076;SDS011;9165;45.714;11.362;2023-07-16T08:48:31;13.70;;;7.93;;
18076;SDS011;9165;45.714;11.362;2023-07-16T08:51:00;10.97;;;6.60;;
18076;SDS011;9165;45.714;11.362;2023-07-16T08:53:28;14.07;;;7.03;;
18076;SDS011;9165;45.714;11.362;2023-07-16T08:56:00;11.25;;;7.70;;
18076;SDS011;9165;45.714;11.362;2023-07-16T08:58:46;9.60;;;6.77;;
18076;SDS011;9165;45.714;11.362;2023-07-16T09:01:16;10.40;;;7.13;;
18076;SDS011;9165;45.714;11.362;2023-07-16T09:03:43;9.48;;;7.70;;
18076;SDS011;9165;45.714;11.362;2023-07-16T09:06:11;14.70;;;7.77;;
18076;SDS011;9165;45.714;11.362;2023-07-16T09:08:38;13.00;;;7.63;;
18076;SDS011;9165;45.714;11.362;2023-07-16T09:11:15;12.32;;;7.70;;
18076;SDS011;9165;45.714;11.362;2023-07-16T09:13:46;13.07;;;7.93;;
18076;SDS011;9165;45.714;11.362;2023-07-16T09:16:13;12.30;;;6.97;;
18076;SDS011;9165;45.714;11.362;2023-07-16T09:18:41;9.50;;;7.38;;
18076;SDS011;9165;45.714;11.362;2023-07-16T09:21:08;13.48;;;7.68;;
18076;SDS011;9165;45.714;11.362;2023-07-16T09:23:36;10.43;;;6.82;;
18076;SDS011;9165;45.714;11.362;2023-07-16T09:26:03;11.60;;;6.97;;
18076;SDS011;9165;45.714;11.362;2023-07-16T09:28:30;8.10;;;6.88;;
18076;SDS011;9165;45.714;11.362;2023-07-16T09:31:02;11.65;;;7.40;;
18076;SDS011;9165;45.714;11.362;2023-07-16T09:33:30;16.20;;;7.63;;
18076;SDS011;9165;45.714;11.362;2023-07-16T09:35:57;12.88;;;7.25;;
18076;SDS011;9165;45.714;11.362;2023-07-16T09:38:24;9.55;;;7.03;;
18076;SDS011;9165;45.714;11.362;2023-07-16T09:40:52;11.38;;;7.28;;
18076;SDS011;9165;45.714;11.362;2023-07-16T09:43:19;9.35;;;6.68;;
18076;SDS011;9165;45.714;11.362;2023-07-16T09:45:46;10.98;;;6.75;;
18076;SDS011;9165;45.714;11.362;2023-07-16T09:48:14;11.57;;;7.68;;
18076;SDS011;9165;45.714;11.362;2023-07-16T09:50:41;15.45;;;7.50;;
18076;SDS011;9165;45.714;11.362;2023-07-16T09:53:09;14.60;;;6.88;;
18076;SDS011;9165;45.714;11.362;2023-07-16T09:55:35;10.15;;;7.03;;
18076;SDS011;9165;45.714;11.362;2023-07-16T09:58:05;11.25;;;6.00;;
18076;SDS011;9165;45.714;11.362;2023-07-16T10:00:32;9.52;;;6.75;;
18076;SDS011;9165;45.714;11.362;2023-07-16T10:03:00;12.55;;;7.05;;
18076;SDS011;9165;45.714;11.362;2023-07-16T10:05:28;12.77;;;6.85;;
18076;SDS011;9165;45.714;11.362;2023-07-16T10:07:55;8.27;;;6.05;;
18076;SDS011;9165;45.714;11.362;2023-07-16T10:10:25;15.23;;;7.40;;
18076;SDS011;9165;45.714;11.362;2023-07-16T10:12:55;15.10;;;7.07;;
18076;SDS011;9165;45.714;11.362;2023-07-16T10:15:26;17.95;;;7.55;;
18076;SDS011;9165;45.714;11.362;2023-07-16T10:17:53;8.85;;;5.70;;
18076;SDS011;9165;45.714;11.362;2023-07-16T10:20:28;9.77;;;6.80;;
18076;SDS011;9165;45.714;11.362;2023-07-16T10:22:55;14.27;;;6.28;;
18076;SDS011;9165;45.714;11.362;2023-07-16T10:25:22;10.30;;;6.30;;
18076;SDS011;9165;45.714;11.362;2023-07-16T10:27:50;8.18;;;6.60;;
18076;SDS011;9165;45.714;11.362;2023-07-16T10:30:17;9.20;;;6.57;;
18076;SDS011;9165;45.714;11.362;2023-07-16T10:32:45;10.43;;;6.72;;
18076;SDS011;9165;45.714;11.362;2023-07-16T10:35:12;12.32;;;6.40;;
18076;SDS011;9165;45.714;11.362;2023-07-16T10:37:39;17.83;;;7.65;;
18076;SDS011;9165;45.714;11.362;2023-07-16T10:40:09;10.82;;;7.38;;
18076;SDS011;9165;45.714;11.362;2023-07-16T10:42:36;10.98;;;6.97;;
18076;SDS011;9165;45.714;11.362;2023-07-16T10:45:03;13.65;;;7.20;;
18076;SDS011;9165;45.714;11.362;2023-07-16T10:47:30;11.98;;;6.50;;
18076;SDS011;9165;45.714;11.362;2023-07-16T10:49:59;11.05;;;6.60;;
18076;SDS011;9165;45.714;11.362;2023-07-16T10:52:26;9.32;;;6.88;;
18076;SDS011;9165;45.714;11.362;2023-07-16T10:54:53;13.05;;;6.88;;
18076;SDS011;9165;45.714;11.362;2023-07-16T10:57:20;11.18;;;6.50;;
18076;SDS011;9165;45.714;11.362;2023-07-16T10:59:47;10.05;;;6.45;;
18076;SDS011;9165;45.714;11.362;2023-07-16T11:02:14;10.82;;;6.45;;
18076;SDS011;9165;45.714;11.362;2023-07-16T11:04:41;9.52;;;6.28;;
18076;SDS011;9165;45.714;11.362;2023-07-16T11:07:10;10.82;;;6.18;;
18076;SDS011;9165;45.714;11.362;2023-07-16T11:09:40;11.75;;;6.32;;
18076;SDS011;9165;45.714;11.362;2023-07-16T11:12:08;6.82;;;5.68;;
18076;SDS011;9165;45.714;11.362;2023-07-16T11:14:35;11.63;;;6.03;;
18076;SDS011;9165;45.714;11.362;2023-07-16T11:17:05;9.35;;;6.72;;
18076;SDS011;9165;45.714;11.362;2023-07-16T11:19:33;11.70;;;6.10;;
18076;SDS011;9165;45.714;11.362;2023-07-16T11:22:00;9.40;;;6.50;;
18076;SDS011;9165;45.714;11.362;2023-07-16T11:24:28;7.93;;;5.90;;
18076;SDS011;9165;45.714;11.362;2023-07-16T11:26:55;9.93;;;6.22;;
18076;SDS011;9165;45.714;11.362;2023-07-16T11:29:23;10.35;;;5.65;;
18076;SDS011;9165;45.714;11.362;2023-07-16T11:31:50;8.95;;;5.95;;
18076;SDS011;9165;45.714;11.362;2023-07-16T11:34:17;10.27;;;6.32;;
18076;SDS011;9165;45.714;11.362;2023-07-16T11:36:45;13.90;;;6.50;;
18076;SDS011;9165;45.714;11.362;2023-07-16T11:39:12;7.43;;;6.25;;
18076;SDS011;9165;45.714;11.362;2023-07-16T11:41:40;10.57;;;5.88;;
18076;SDS011;9165;45.714;11.362;2023-07-16T11:44:07;7.05;;;5.90;;
18076;SDS011;9165;45.714;11.362;2023-07-16T11:46:34;10.00;;;6.05;;
18076;SDS011;9165;45.714;11.362;2023-07-16T11:49:01;8.10;;;6.90;;
18076;SDS011;9165;45.714;11.362;2023-07-16T11:51:29;9.48;;;6.97;;
18076;SDS011;9165;45.714;11.362;2023-07-16T11:53:56;12.70;;;6.45;;
18076;SDS011;9165;45.714;11.362;2023-07-16T11:56:22;14.63;;;6.03;;
18076;SDS011;9165;45.714;11.362;2023-07-16T11:58:50;14.43;;;6.57;;
18076;SDS011;9165;45.714;11.362;2023-07-16T12:01:17;10.05;;;5.88;;
18076;SDS011;9165;45.714;11.362;2023-07-16T12:03:43;10.00;;;6.05;;
18076;SDS011;9165;45.714;11.362;2023-07-16T12:06:10;12.52;;;6.75;;
18076;SDS011;9165;45.714;11.362;2023-07-16T12:08:37;9.48;;;6.22;;
18076;SDS011;9165;45.714;11.362;2023-07-16T12:11:03;9.52;;;6.22;;
18076;SDS011;9165;45.714;11.362;2023-07-16T12:13:30;11.00;;;6.13;;
18076;SDS011;9165;45.714;11.362;2023-07-16T12:15:58;11.05;;;5.85;;
18076;SDS011;9165;45.714;11.362;2023-07-16T12:18:24;6.22;;;5.63;;
18076;SDS011;9165;45.714;11.362;2023-07-16T12:20:52;11.23;;;5.97;;
18076;SDS011;9165;45.714;11.362;2023-07-16T12:23:18;8.38;;;5.97;;
18076;SDS011;9165;45.714;11.362;2023-07-16T12:25:45;10.70;;;6.10;;
18076;SDS011;9165;45.714;11.362;2023-07-16T12:28:11;7.72;;;5.53;;
18076;SDS011;9165;45.714;11.362;2023-07-16T12:30:38;9.18;;;5.55;;
18076;SDS011;9165;45.714;11.362;2023-07-16T12:33:06;11.75;;;6.28;;
18076;SDS011;9165;45.714;11.362;2023-07-16T12:35:34;14.52;;;6.03;;
18076;SDS011;9165;45.714;11.362;2023-07-16T12:38:00;10.10;;;6.22;;
18076;SDS011;9165;45.714;11.362;2023-07-16T12:40:28;14.10;;;7.13;;
18076;SDS011;9165;45.714;11.362;2023-07-16T12:42:55;7.43;;;5.88;;
18076;SDS011;9165;45.714;11.362;2023-07-16T12:45:22;10.27;;;5.70;;
18076;SDS011;9165;45.714;11.362;2023-07-16T12:47:48;12.45;;;5.85;;
18076;SDS011;9165;45.714;11.362;2023-07-16T12:50:17;9.98;;;6.40;;
18076;SDS011;9165;45.714;11.362;2023-07-16T12:52:43;11.15;;;6.13;;
18076;SDS011;9165;45.714;11.362;2023-07-16T12:55:10;9.00;;;5.57;;
18076;SDS011;9165;45.714;11.362;2023-07-16T12:57:38;8.70;;;5.82;;
18076;SDS011;9165;45.714;11.362;2023-07-16T13:00:05;14.57;;;5.18;;
18076;SDS011;9165;45.714;11.362;2023-07-16T13:02:34;9.75;;;4.82;;
18076;SDS011;9165;45.714;11.362;2023-07-16T13:05:01;10.52;;;5.80;;
18076;SDS011;9165;45.714;11.362;2023-07-16T13:07:29;9.50;;;5.57;;
18076;SDS011;9165;45.714;11.362;2023-07-16T13:09:56;8.80;;;5.75;;
18076;SDS011;9165;45.714;11.362;2023-07-16T13:12:22;8.68;;;5.50;;
18076;SDS011;9165;45.714;11.362;2023-07-16T13:14:49;6.10;;;4.93;;
18076;SDS011;9165;45.714;11.362;2023-07-16T13:17:15;14.65;;;5.70;;
18076;SDS011;9165;45.714;11.362;2023-07-16T13:19:44;8.38;;;4.93;;
18076;SDS011;9165;45.714;11.362;2023-07-16T13:22:10;8.23;;;5.28;;
18076;SDS011;9165;45.714;11.362;2023-07-16T13:24:38;12.80;;;5.38;;
18076;SDS011;9165;45.714;11.362;2023-07-16T13:27:05;11.32;;;4.82;;
18076;SDS011;9165;45.714;11.362;2023-07-16T13:29:31;7.32;;;4.72;;
18076;SDS011;9165;45.714;11.362;2023-07-16T13:32:01;5.35;;;4.85;;
18076;SDS011;9165;45.714;11.362;2023-07-16T13:34:28;8.27;;;5.28;;
18076;SDS011;9165;45.714;11.362;2023-07-16T13:36:54;10.35;;;4.75;;
18076;SDS011;9165;45.714;11.362;2023-07-16T13:39:21;10.15;;;4.82;;
18076;SDS011;9165;45.714;11.362;2023-07-16T13:41:49;8.35;;;5.13;;
18076;SDS011;9165;45.714;11.362;2023-07-16T13:44:15;7.20;;;4.47;;
18076;SDS011;9165;45.714;11.362;2023-07-16T13:46:42;8.55;;;4.38;;
18076;SDS011;9165;45.714;11.362;2023-07-16T13:49:08;6.57;;;4.55;;
18076;SDS011;9165;45.714;11.362;2023-07-16T13:51:35;7.38;;;4.47;;
18076;SDS011;9165;45.714;11.362;2023-07-16T13:54:01;5.40;;;4.20;;
18076;SDS011;9165;45.714;11.362;2023-07-16T13:56:28;9.13;;;4.43;;
18076;SDS011;9165;45.714;11.362;2023-07-16T13:58:56;5.43;;;4.38;;
18076;SDS011;9165;45.714;11.362;2023-07-16T14:01:22;8.32;;;4.25;;
18076;SDS011;9165;45.714;11.362;2023-07-16T14:03:49;7.05;;;4.35;;
18076;SDS011;9165;45.714;11.362;2023-07-16T14:06:15;10.48;;;5.22;;
18076;SDS011;9165;45.714;11.362;2023-07-16T14:08:42;11.07;;;4.78;;
18076;SDS011;9165;45.714;11.362;2023-07-16T14:11:12;11.27;;;4.20;;
18076;SDS011;9165;45.714;11.362;2023-07-16T14:13:38;9.32;;;4.47;;
18076;SDS011;9165;45.714;11.362;2023-07-16T14:16:06;6.88;;;4.22;;
18076;SDS011;9165;45.714;11.362;2023-07-16T14:18:33;9.02;;;4.50;;
18076;SDS011;9165;45.714;11.362;2023-07-16T14:20:59;7.43;;;5.10;;
18076;SDS011;9165;45.714;11.362;2023-07-16T14:23:27;9.82;;;4.88;;
18076;SDS011;9165;45.714;11.362;2023-07-16T14:25:54;7.65;;;4.93;;
18076;SDS011;9165;45.714;11.362;2023-07-16T14:28:21;9.82;;;4.55;;
18076;SDS011;9165;45.714;11.362;2023-07-16T14:30:47;8.50;;;4.88;;
18076;SDS011;9165;45.714;11.362;2023-07-16T14:33:18;5.80;;;4.45;;
18076;SDS011;9165;45.714;11.362;2023-07-16T14:35:52;6.10;;;3.97;;
18076;SDS011;9165;45.714;11.362;2023-07-16T14:38:19;9.60;;;5.00;;
18076;SDS011;9165;45.714;11.362;2023-07-16T14:40:45;9.05;;;4.97;;
18076;SDS011;9165;45.714;11.362;2023-07-16T14:43:13;7.90;;;5.07;;
18076;SDS011;9165;45.714;11.362;2023-07-16T14:45:40;7.80;;;4.57;;
18076;SDS011;9165;45.714;11.362;2023-07-16T14:48:06;6.53;;;4.72;;
18076;SDS011;9165;45.714;11.362;2023-07-16T14:50:36;7.03;;;4.80;;
18076;SDS011;9165;45.714;11.362;2023-07-16T14:53:02;7.93;;;4.82;;
18076;SDS011;9165;45.714;11.362;2023-07-16T14:55:29;7.60;;;5.35;;
18076;SDS011;9165;45.714;11.362;2023-07-16T14:57:56;8.18;;;6.05;;
18076;SDS011;9165;45.714;11.362;2023-07-16T15:00:22;9.57;;;5.10;;
18076;SDS011;9165;45.714;11.362;2023-07-16T15:02:49;8.68;;;4.70;;
18076;SDS011;9165;45.714;11.362;2023-07-16T15:05:16;9.30;;;5.10;;
18076;SDS011;9165;45.714;11.362;2023-07-16T15:07:44;7.47;;;4.72;;
18076;SDS011;9165;45.714;11.362;2023-07-16T15:10:14;10.05;;;4.45;;
18076;SDS011;9165;45.714;11.362;2023-07-16T15:12:40;6.32;;;4.43;;
18076;SDS011;9165;45.714;11.362;2023-07-16T15:15:24;9.73;;;5.15;;
18076;SDS011;9165;45.714;11.362;2023-07-16T15:18:30;10.98;;;4.80;;
18076;SDS011;9165;45.714;11.362;2023-07-16T15:20:44;7.75;;;4.55;;
18076;SDS011;9165;45.714;11.362;2023-07-16T15:23:12;12.23;;;6.15;;
18076;SDS011;9165;45.714;11.362;2023-07-16T15:25:41;8.18;;;4.40;;
18076;SDS011;9165;45.714;11.362;2023-07-16T15:28:08;8.20;;;4.85;;